sensor_id;sensor_type;location;lat;lon;timestamp;temperature;humidity
54126;DHT22;40360;52.992;6.796;2022-07-19T00:01:56;17.80;99.90
54126;DHT22;40360;52.992;6.796;2022-07-19T00:04:21;17.80;99.90
54126;DHT22;40360;52.992;6.796;2022-07-19T00:06:47;17.80;99.90
54126;DHT22;40360;52.992;6.796;2022-07-19T00:09:14;18.50;99.90
54126;DHT22;40360;52.992;6.796;2022-07-19T00:11:40;17.80;99.90
54126;DHT22;40360;52.992;6.796;2022-07-19T00:14:05;17.70;99.90
54126;DHT22;40360;52.992;6.796;2022-07-19T00:16:31;17.70;99.90
54126;DHT22;40360;52.992;6.796;2022-07-19T00:18:57;17.60;99.90
54126;DHT22;40360;52.992;6.796;2022-07-19T00:21:22;17.60;99.90
54126;DHT22;40360;52.992;6.796;2022-07-19T00:23:48;18.40;99.90
54126;DHT22;40360;52.992;6.796;2022-07-19T00:26:13;17.50;99.90
54126;DHT22;40360;52.992;6.796;2022-07-19T00:28:39;17.50;99.90
54126;DHT22;40360;52.992;6.796;2022-07-19T00:31:05;18.30;99.90
54126;DHT22;40360;52.992;6.796;2022-07-19T00:33:31;17.90;99.90
54126;DHT22;40360;52.992;6.796;2022-07-19T00:35:56;17.80;99.90
54126;DHT22;40360;52.992;6.796;2022-07-19T00:38:22;17.40;99.90
54126;DHT22;40360;52.992;6.796;2022-07-19T00:40:47;17.40;99.90
54126;DHT22;40360;52.992;6.796;2022-07-19T00:43:13;17.40;99.90
54126;DHT22;40360;52.992;6.796;2022-07-19T00:45:39;17.40;99.90
54126;DHT22;40360;52.992;6.796;2022-07-19T00:48:05;17.40;99.90
54126;DHT22;40360;52.992;6.796;2022-07-19T00:50:31;17.40;99.90
54126;DHT22;40360;52.992;6.796;2022-07-19T00:52:59;17.40;99.90
54126;DHT22;40360;52.992;6.796;2022-07-19T00:55:31;17.40;99.90
54126;DHT22;40360;52.992;6.796;2022-07-19T00:57:58;17.40;99.90
54126;DHT22;40360;52.992;6.796;2022-07-19T01:00:24;17.80;99.90
54126;DHT22;40360;52.992;6.796;2022-07-19T01:02:52;17.30;99.90
54126;DHT22;40360;52.992;6.796;2022-07-19T01:05:18;17.30;99.90
54126;DHT22;40360;52.992;6.796;2022-07-19T01:07:44;17.20;99.90
54126;DHT22;40360;52.992;6.796;2022-07-19T01:10:12;17.20;99.90
54126;DHT22;40360;52.992;6.796;2022-07-19T01:12:39;17.20;99.90
54126;DHT22;40360;52.992;6.796;2022-07-19T01:15:20;17.20;99.90
54126;DHT22;40360;52.992;6.796;2022-07-19T01:17:46;17.20;99.90
54126;DHT22;40360;52.992;6.796;2022-07-19T01:20:13;17.20;99.90
54126;DHT22;40360;52.992;6.796;2022-07-19T01:22:40;17.20;99.90
54126;DHT22;40360;52.992;6.796;2022-07-19T01:25:07;17.20;99.90
54126;DHT22;40360;52.992;6.796;2022-07-19T01:27:38;17.20;99.90
54126;DHT22;40360;52.992;6.796;2022-07-19T01:30:13;17.10;99.90
54126;DHT22;40360;52.992;6.796;2022-07-19T01:32:39;17.10;99.90
54126;DHT22;40360;52.992;6.796;2022-07-19T01:35:06;17.10;99.90
54126;DHT22;40360;52.992;6.796;2022-07-19T01:37:33;17.10;99.90
54126;DHT22;40360;52.992;6.796;2022-07-19T01:39:59;17.10;99.90
54126;DHT22;40360;52.992;6.796;2022-07-19T01:42:24;17.10;99.90
54126;DHT22;40360;52.992;6.796;2022-07-19T01:44:50;17.10;99.90
54126;DHT22;40360;52.992;6.796;2022-07-19T01:47:16;17.70;99.90
54126;DHT22;40360;52.992;6.796;2022-07-19T01:49:41;17.00;99.90
54126;DHT22;40360;52.992;6.796;2022-07-19T01:52:07;17.10;99.90
54126;DHT22;40360;52.992;6.796;2022-07-19T01:54:33;17.50;99.90
54126;DHT22;40360;52.992;6.796;2022-07-19T01:56:58;16.90;99.90
54126;DHT22;40360;52.992;6.796;2022-07-19T01:59:24;16.90;99.90
54126;DHT22;40360;52.992;6.796;2022-07-19T02:01:50;16.80;99.90
54126;DHT22;40360;52.992;6.796;2022-07-19T02:04:15;16.80;99.90
54126;DHT22;40360;52.992;6.796;2022-07-19T02:06:41;16.80;99.90
54126;DHT22;40360;52.992;6.796;2022-07-19T02:09:06;16.80;99.90
54126;DHT22;40360;52.992;6.796;2022-07-19T02:11:32;16.80;99.90
54126;DHT22;40360;52.992;6.796;2022-07-19T02:14:00;16.80;99.90
54126;DHT22;40360;52.992;6.796;2022-07-19T02:16:26;16.70;99.90
54126;DHT22;40360;52.992;6.796;2022-07-19T02:18:52;16.60;99.90
54126;DHT22;40360;52.992;6.796;2022-07-19T02:21:18;16.60;99.90
54126;DHT22;40360;52.992;6.796;2022-07-19T02:23:43;16.70;99.90
54126;DHT22;40360;52.992;6.796;2022-07-19T02:26:09;16.60;99.90
54126;DHT22;40360;52.992;6.796;2022-07-19T02:28:34;16.60;99.90
54126;DHT22;40360;52.992;6.796;2022-07-19T02:31:00;16.70;99.90
54126;DHT22;40360;52.992;6.796;2022-07-19T02:33:26;16.70;99.90
54126;DHT22;40360;52.992;6.796;2022-07-19T02:35:51;16.60;99.90
54126;DHT22;40360;52.992;6.796;2022-07-19T02:38:17;16.60;99.90
54126;DHT22;40360;52.992;6.796;2022-07-19T02:40:42;16.80;99.90
54126;DHT22;40360;52.992;6.796;2022-07-19T02:43:08;16.60;99.90
54126;DHT22;40360;52.992;6.796;2022-07-19T02:45:33;16.60;99.90
54126;DHT22;40360;52.992;6.796;2022-07-19T02:47:59;17.60;99.90
54126;DHT22;40360;52.992;6.796;2022-07-19T02:50:26;16.90;99.90
54126;DHT22;40360;52.992;6.796;2022-07-19T02:52:51;16.50;99.90
54126;DHT22;40360;52.992;6.796;2022-07-19T02:55:17;16.50;99.90
54126;DHT22;40360;52.992;6.796;2022-07-19T02:57:42;16.40;99.90
54126;DHT22;40360;52.992;6.796;2022-07-19T03:00:08;17.00;99.90
54126;DHT22;40360;52.992;6.796;2022-07-19T03:02:35;16.40;99.90
54126;DHT22;40360;52.992;6.796;2022-07-19T03:05:00;16.30;99.90
54126;DHT22;40360;52.992;6.796;2022-07-19T03:07:26;16.30;99.90
54126;DHT22;40360;52.992;6.796;2022-07-19T03:09:51;16.30;99.90
54126;DHT22;40360;52.992;6.796;2022-07-19T03:12:17;16.60;99.90
54126;DHT22;40360;52.992;6.796;2022-07-19T03:14:43;16.30;99.90
54126;DHT22;40360;52.992;6.796;2022-07-19T03:17:08;16.30;99.90
54126;DHT22;40360;52.992;6.796;2022-07-19T03:19:34;16.30;99.90
54126;DHT22;40360;52.992;6.796;2022-07-19T03:21:59;16.20;99.90
54126;DHT22;40360;52.992;6.796;2022-07-19T03:24:25;16.30;99.90
54126;DHT22;40360;52.992;6.796;2022-07-19T03:26:51;16.30;99.90
54126;DHT22;40360;52.992;6.796;2022-07-19T03:29:16;16.40;99.90
54126;DHT22;40360;52.992;6.796;2022-07-19T03:31:42;16.40;99.90
54126;DHT22;40360;52.992;6.796;2022-07-19T03:34:08;16.30;99.90
54126;DHT22;40360;52.992;6.796;2022-07-19T03:36:33;16.30;99.90
54126;DHT22;40360;52.992;6.796;2022-07-19T03:38:59;16.30;99.90
54126;DHT22;40360;52.992;6.796;2022-07-19T03:41:24;16.30;99.90
54126;DHT22;40360;52.992;6.796;2022-07-19T03:43:50;16.30;99.90
54126;DHT22;40360;52.992;6.796;2022-07-19T03:46:15;16.30;99.90
54126;DHT22;40360;52.992;6.796;2022-07-19T03:48:41;17.10;99.90
54126;DHT22;40360;52.992;6.796;2022-07-19T03:51:07;16.40;99.90
54126;DHT22;40360;52.992;6.796;2022-07-19T03:53:33;16.40;99.90
54126;DHT22;40360;52.992;6.796;2022-07-19T03:56:00;16.40;99.90
54126;DHT22;40360;52.992;6.796;2022-07-19T03:58:26;16.40;99.90
54126;DHT22;40360;52.992;6.796;2022-07-19T04:00:51;16.50;99.90
54126;DHT22;40360;52.992;6.796;2022-07-19T04:03:17;17.10;99.90
54126;DHT22;40360;52.992;6.796;2022-07-19T04:05:42;16.40;99.90
54126;DHT22;40360;52.992;6.796;2022-07-19T04:08:08;16.40;99.90
54126;DHT22;40360;52.992;6.796;2022-07-19T04:10:34;17.00;99.90
54126;DHT22;40360;52.992;6.796;2022-07-19T04:12:59;16.40;99.90
54126;DHT22;40360;52.992;6.796;2022-07-19T04:15:25;16.40;99.90
54126;DHT22;40360;52.992;6.796;2022-07-19T04:17:51;16.70;99.90
54126;DHT22;40360;52.992;6.796;2022-07-19T04:20:16;16.40;99.90
54126;DHT22;40360;52.992;6.796;2022-07-19T04:22:42;16.50;99.90
54126;DHT22;40360;52.992;6.796;2022-07-19T04:25:08;16.50;99.90
54126;DHT22;40360;52.992;6.796;2022-07-19T04:27:34;16.60;99.90
54126;DHT22;40360;52.992;6.796;2022-07-19T04:30:00;16.60;99.90
54126;DHT22;40360;52.992;6.796;2022-07-19T04:32:25;16.60;99.90
54126;DHT22;40360;52.992;6.796;2022-07-19T04:34:51;16.50;99.90
54126;DHT22;40360;52.992;6.796;2022-07-19T04:37:17;16.50;99.90
54126;DHT22;40360;52.992;6.796;2022-07-19T04:39:42;16.60;99.90
54126;DHT22;40360;52.992;6.796;2022-07-19T04:42:08;16.60;99.90
54126;DHT22;40360;52.992;6.796;2022-07-19T04:44:34;16.70;99.90
54126;DHT22;40360;52.992;6.796;2022-07-19T04:46:59;16.70;99.90
54126;DHT22;40360;52.992;6.796;2022-07-19T04:49:25;16.80;99.90
54126;DHT22;40360;52.992;6.796;2022-07-19T04:51:51;17.00;99.90
54126;DHT22;40360;52.992;6.796;2022-07-19T04:54:16;17.00;99.90
54126;DHT22;40360;52.992;6.796;2022-07-19T04:56:42;17.10;99.90
54126;DHT22;40360;52.992;6.796;2022-07-19T04:59:08;17.20;99.90
54126;DHT22;40360;52.992;6.796;2022-07-19T05:01:34;17.20;99.90
54126;DHT22;40360;52.992;6.796;2022-07-19T05:22:24;17.90;99.90
54126;DHT22;40360;52.992;6.796;2022-07-19T05:24:51;18.00;99.90
54126;DHT22;40360;52.992;6.796;2022-07-19T05:27:17;18.10;99.90
54126;DHT22;40360;52.992;6.796;2022-07-19T05:29:43;18.10;99.90
54126;DHT22;40360;52.992;6.796;2022-07-19T05:32:09;18.20;99.90
54126;DHT22;40360;52.992;6.796;2022-07-19T05:34:34;18.30;99.90
54126;DHT22;40360;52.992;6.796;2022-07-19T05:37:00;18.40;99.90
54126;DHT22;40360;52.992;6.796;2022-07-19T05:39:25;18.40;99.90
54126;DHT22;40360;52.992;6.796;2022-07-19T05:41:51;18.50;99.90
54126;DHT22;40360;52.992;6.796;2022-07-19T05:44:17;18.70;99.90
54126;DHT22;40360;52.992;6.796;2022-07-19T05:46:42;18.70;99.90
54126;DHT22;40360;52.992;6.796;2022-07-19T05:49:08;18.80;99.90
54126;DHT22;40360;52.992;6.796;2022-07-19T05:51:35;18.90;99.90
54126;DHT22;40360;52.992;6.796;2022-07-19T05:54:01;18.90;99.90
54126;DHT22;40360;52.992;6.796;2022-07-19T05:56:27;19.10;99.90
54126;DHT22;40360;52.992;6.796;2022-07-19T05:58:53;19.10;99.90
54126;DHT22;40360;52.992;6.796;2022-07-19T06:01:19;19.20;99.90
54126;DHT22;40360;52.992;6.796;2022-07-19T06:03:56;19.30;99.90
54126;DHT22;40360;52.992;6.796;2022-07-19T06:06:22;19.30;99.90
54126;DHT22;40360;52.992;6.796;2022-07-19T06:08:48;19.40;99.90
54126;DHT22;40360;52.992;6.796;2022-07-19T06:11:16;19.90;99.90
54126;DHT22;40360;52.992;6.796;2022-07-19T06:13:43;19.60;99.90
54126;DHT22;40360;52.992;6.796;2022-07-19T06:16:09;19.70;99.90
54126;DHT22;40360;52.992;6.796;2022-07-19T06:18:36;19.90;99.90
54126;DHT22;40360;52.992;6.796;2022-07-19T06:21:10;19.80;99.90
54126;DHT22;40360;52.992;6.796;2022-07-19T06:23:38;19.80;99.90
54126;DHT22;40360;52.992;6.796;2022-07-19T06:26:05;20.00;99.90
54126;DHT22;40360;52.992;6.796;2022-07-19T06:28:31;20.00;99.90
54126;DHT22;40360;52.992;6.796;2022-07-19T06:30:57;20.30;99.90
54126;DHT22;40360;52.992;6.796;2022-07-19T06:33:22;20.20;99.90
54126;DHT22;40360;52.992;6.796;2022-07-19T06:35:48;20.30;99.90
54126;DHT22;40360;52.992;6.796;2022-07-19T06:38:14;20.50;99.90
54126;DHT22;40360;52.992;6.796;2022-07-19T06:40:40;20.50;99.90
54126;DHT22;40360;52.992;6.796;2022-07-19T06:43:05;21.10;99.90
54126;DHT22;40360;52.992;6.796;2022-07-19T06:45:31;20.80;99.90
54126;DHT22;40360;52.992;6.796;2022-07-19T06:47:57;20.90;99.90
54126;DHT22;40360;52.992;6.796;2022-07-19T06:50:23;21.00;99.90
54126;DHT22;40360;52.992;6.796;2022-07-19T06:52:48;21.60;99.90
54126;DHT22;40360;52.992;6.796;2022-07-19T06:55:14;21.20;99.90
54126;DHT22;40360;52.992;6.796;2022-07-19T06:57:40;21.30;99.90
54126;DHT22;40360;52.992;6.796;2022-07-19T07:00:07;21.90;99.90
54126;DHT22;40360;52.992;6.796;2022-07-19T07:02:36;21.60;99.90
54126;DHT22;40360;52.992;6.796;2022-07-19T07:05:01;21.70;99.90
54126;DHT22;40360;52.992;6.796;2022-07-19T07:07:27;21.90;99.90
54126;DHT22;40360;52.992;6.796;2022-07-19T07:09:53;22.00;99.90
54126;DHT22;40360;52.992;6.796;2022-07-19T07:12:18;22.10;99.90
54126;DHT22;40360;52.992;6.796;2022-07-19T07:14:44;22.10;99.90
54126;DHT22;40360;52.992;6.796;2022-07-19T07:17:10;22.30;99.90
54126;DHT22;40360;52.992;6.796;2022-07-19T07:19:35;22.40;99.90
54126;DHT22;40360;52.992;6.796;2022-07-19T07:22:01;22.50;99.90
54126;DHT22;40360;52.992;6.796;2022-07-19T07:24:27;22.70;99.90
54126;DHT22;40360;52.992;6.796;2022-07-19T07:26:53;22.80;99.90
54126;DHT22;40360;52.992;6.796;2022-07-19T07:29:18;22.90;99.90
54126;DHT22;40360;52.992;6.796;2022-07-19T07:31:44;23.10;99.90
54126;DHT22;40360;52.992;6.796;2022-07-19T07:34:10;23.60;99.90
54126;DHT22;40360;52.992;6.796;2022-07-19T07:36:35;23.50;99.90
54126;DHT22;40360;52.992;6.796;2022-07-19T07:39:02;23.50;99.90
54126;DHT22;40360;52.992;6.796;2022-07-19T07:41:27;23.60;99.90
54126;DHT22;40360;52.992;6.796;2022-07-19T07:43:53;23.80;99.90
54126;DHT22;40360;52.992;6.796;2022-07-19T07:46:19;23.80;99.90
54126;DHT22;40360;52.992;6.796;2022-07-19T07:48:44;24.40;99.90
54126;DHT22;40360;52.992;6.796;2022-07-19T07:51:10;24.10;99.90
54126;DHT22;40360;52.992;6.796;2022-07-19T07:53:36;24.70;99.90
54126;DHT22;40360;52.992;6.796;2022-07-19T07:56:01;24.50;99.90
54126;DHT22;40360;52.992;6.796;2022-07-19T07:58:27;24.50;99.90
54126;DHT22;40360;52.992;6.796;2022-07-19T08:00:53;24.60;99.90
54126;DHT22;40360;52.992;6.796;2022-07-19T08:03:18;24.80;99.90
54126;DHT22;40360;52.992;6.796;2022-07-19T08:05:44;25.40;99.90
54126;DHT22;40360;52.992;6.796;2022-07-19T08:08:16;25.00;99.90
54126;DHT22;40360;52.992;6.796;2022-07-19T08:10:41;25.80;99.90
54126;DHT22;40360;52.992;6.796;2022-07-19T08:13:07;25.30;99.90
54126;DHT22;40360;52.992;6.796;2022-07-19T08:15:33;25.60;99.90
54126;DHT22;40360;52.992;6.796;2022-07-19T08:17:59;25.50;99.90
54126;DHT22;40360;52.992;6.796;2022-07-19T08:20:25;25.80;99.90
54126;DHT22;40360;52.992;6.796;2022-07-19T08:22:51;26.00;99.90
54126;DHT22;40360;52.992;6.796;2022-07-19T08:25:16;26.10;99.90
54126;DHT22;40360;52.992;6.796;2022-07-19T08:27:43;26.20;99.90
54126;DHT22;40360;52.992;6.796;2022-07-19T08:30:09;26.40;99.90
54126;DHT22;40360;52.992;6.796;2022-07-19T08:32:36;26.50;99.90
54126;DHT22;40360;52.992;6.796;2022-07-19T08:35:01;26.80;99.90
54126;DHT22;40360;52.992;6.796;2022-07-19T08:37:27;26.90;99.90
54126;DHT22;40360;52.992;6.796;2022-07-19T08:39:54;27.10;99.90
54126;DHT22;40360;52.992;6.796;2022-07-19T08:42:20;27.30;99.90
54126;DHT22;40360;52.992;6.796;2022-07-19T08:44:51;27.40;99.90
54126;DHT22;40360;52.992;6.796;2022-07-19T08:47:19;27.60;99.90
54126;DHT22;40360;52.992;6.796;2022-07-19T08:49:44;27.70;99.90
54126;DHT22;40360;52.992;6.796;2022-07-19T08:52:11;27.90;99.90
54126;DHT22;40360;52.992;6.796;2022-07-19T08:54:37;28.20;99.90
54126;DHT22;40360;52.992;6.796;2022-07-19T08:57:03;28.10;99.90
54126;DHT22;40360;52.992;6.796;2022-07-19T08:59:47;28.20;99.90
54126;DHT22;40360;52.992;6.796;2022-07-19T09:02:13;28.80;99.90
54126;DHT22;40360;52.992;6.796;2022-07-19T09:04:39;28.60;99.90
54126;DHT22;40360;52.992;6.796;2022-07-19T09:07:05;29.30;99.90
54126;DHT22;40360;52.992;6.796;2022-07-19T09:09:33;29.00;99.90
54126;DHT22;40360;52.992;6.796;2022-07-19T09:12:07;29.30;99.90
54126;DHT22;40360;52.992;6.796;2022-07-19T09:14:35;29.30;99.90
54126;DHT22;40360;52.992;6.796;2022-07-19T09:17:06;29.50;99.90
54126;DHT22;40360;52.992;6.796;2022-07-19T09:19:37;29.60;99.90
54126;DHT22;40360;52.992;6.796;2022-07-19T09:22:10;29.70;99.90
54126;DHT22;40360;52.992;6.796;2022-07-19T09:24:41;30.20;99.90
54126;DHT22;40360;52.992;6.796;2022-07-19T09:27:15;30.10;99.90
54126;DHT22;40360;52.992;6.796;2022-07-19T09:29:46;30.20;99.90
54126;DHT22;40360;52.992;6.796;2022-07-19T09:32:16;30.90;99.90
54126;DHT22;40360;52.992;6.796;2022-07-19T09:34:53;30.50;99.80
54126;DHT22;40360;52.992;6.796;2022-07-19T09:37:23;30.70;99.30
54126;DHT22;40360;52.992;6.796;2022-07-19T09:39:52;30.90;99.40
54126;DHT22;40360;52.992;6.796;2022-07-19T09:42:21;30.90;98.80
54126;DHT22;40360;52.992;6.796;2022-07-19T09:44:57;31.10;99.10
54126;DHT22;40360;52.992;6.796;2022-07-19T09:47:30;31.10;98.30
54126;DHT22;40360;52.992;6.796;2022-07-19T09:49:56;31.30;98.00
54126;DHT22;40360;52.992;6.796;2022-07-19T09:52:22;31.50;97.50
54126;DHT22;40360;52.992;6.796;2022-07-19T09:54:51;31.60;96.70
54126;DHT22;40360;52.992;6.796;2022-07-19T09:57:22;31.60;96.70
54126;DHT22;40360;52.992;6.796;2022-07-19T09:59:50;31.90;97.00
54126;DHT22;40360;52.992;6.796;2022-07-19T10:02:18;32.20;96.80
54126;DHT22;40360;52.992;6.796;2022-07-19T10:04:46;32.10;96.20
54126;DHT22;40360;52.992;6.796;2022-07-19T10:07:13;32.20;96.50
54126;DHT22;40360;52.992;6.796;2022-07-19T10:09:40;32.50;95.70
54126;DHT22;40360;52.992;6.796;2022-07-19T10:12:06;32.80;95.00
54126;DHT22;40360;52.992;6.796;2022-07-19T10:14:33;32.50;94.50
54126;DHT22;40360;52.992;6.796;2022-07-19T10:19:48;32.70;94.30
54126;DHT22;40360;52.992;6.796;2022-07-19T10:22:17;33.00;93.20
54126;DHT22;40360;52.992;6.796;2022-07-19T10:27:10;33.20;93.00
54126;DHT22;40360;52.992;6.796;2022-07-19T10:29:36;33.20;93.30
54126;DHT22;40360;52.992;6.796;2022-07-19T10:32:07;33.20;92.80
54126;DHT22;40360;52.992;6.796;2022-07-19T10:34:33;33.50;92.40
54126;DHT22;40360;52.992;6.796;2022-07-19T10:36:59;33.60;92.30
54126;DHT22;40360;52.992;6.796;2022-07-19T10:42:19;33.90;91.20
54126;DHT22;40360;52.992;6.796;2022-07-19T10:50:12;34.20;90.30
54126;DHT22;40360;52.992;6.796;2022-07-19T10:52:45;34.30;89.40
54126;DHT22;40360;52.992;6.796;2022-07-19T10:57:49;34.40;86.30
54126;DHT22;40360;52.992;6.796;2022-07-19T11:02:41;34.60;86.40
54126;DHT22;40360;52.992;6.796;2022-07-19T11:05:07;34.70;85.60
54126;DHT22;40360;52.992;6.796;2022-07-19T11:07:36;34.80;86.40
54126;DHT22;40360;52.992;6.796;2022-07-19T11:10:04;34.90;84.00
54126;DHT22;40360;52.992;6.796;2022-07-19T11:12:35;35.00;84.00
54126;DHT22;40360;52.992;6.796;2022-07-19T11:15:04;35.10;84.80
54126;DHT22;40360;52.992;6.796;2022-07-19T11:17:30;35.20;84.60
54126;DHT22;40360;52.992;6.796;2022-07-19T11:20:11;35.30;85.50
54126;DHT22;40360;52.992;6.796;2022-07-19T11:22:43;35.40;81.90
54126;DHT22;40360;52.992;6.796;2022-07-19T11:25:14;35.60;82.70
54126;DHT22;40360;52.992;6.796;2022-07-19T11:27:44;35.60;83.30
54126;DHT22;40360;52.992;6.796;2022-07-19T11:30:12;35.70;82.50
54126;DHT22;40360;52.992;6.796;2022-07-19T11:32:39;36.00;83.10
54126;DHT22;40360;52.992;6.796;2022-07-19T11:35:09;35.90;82.30
54126;DHT22;40360;52.992;6.796;2022-07-19T11:37:41;36.00;81.10
54126;DHT22;40360;52.992;6.796;2022-07-19T11:40:08;36.00;79.60
54126;DHT22;40360;52.992;6.796;2022-07-19T11:42:42;36.10;80.00
54126;DHT22;40360;52.992;6.796;2022-07-19T11:45:13;36.10;81.00
54126;DHT22;40360;52.992;6.796;2022-07-19T11:47:46;36.20;80.80
54126;DHT22;40360;52.992;6.796;2022-07-19T11:50:14;36.60;80.80
54126;DHT22;40360;52.992;6.796;2022-07-19T11:52:57;36.30;79.50
54126;DHT22;40360;52.992;6.796;2022-07-19T11:55:25;36.50;78.00
54126;DHT22;40360;52.992;6.796;2022-07-19T11:57:52;36.80;79.30
54126;DHT22;40360;52.992;6.796;2022-07-19T12:00:19;36.70;78.60
54126;DHT22;40360;52.992;6.796;2022-07-19T12:02:58;36.70;78.00
54126;DHT22;40360;52.992;6.796;2022-07-19T12:05:28;36.80;78.00
54126;DHT22;40360;52.992;6.796;2022-07-19T12:07:58;36.90;78.20
54126;DHT22;40360;52.992;6.796;2022-07-19T12:13:09;37.00;76.00
54126;DHT22;40360;52.992;6.796;2022-07-19T12:15:54;37.10;76.10
54126;DHT22;40360;52.992;6.796;2022-07-19T12:18:32;37.10;74.30
54126;DHT22;40360;52.992;6.796;2022-07-19T12:21:23;37.10;76.40
54126;DHT22;40360;52.992;6.796;2022-07-19T12:24:13;37.20;76.40
54126;DHT22;40360;52.992;6.796;2022-07-19T12:26:42;37.30;74.50
54126;DHT22;40360;52.992;6.796;2022-07-19T12:31:50;37.50;75.20
54126;DHT22;40360;52.992;6.796;2022-07-19T12:34:17;37.50;73.20
54126;DHT22;40360;52.992;6.796;2022-07-19T12:36:43;37.50;71.30
54126;DHT22;40360;52.992;6.796;2022-07-19T12:39:20;37.70;72.00
54126;DHT22;40360;52.992;6.796;2022-07-19T12:42:04;37.70;72.60
54126;DHT22;40360;52.992;6.796;2022-07-19T12:44:31;37.80;70.30
54126;DHT22;40360;52.992;6.796;2022-07-19T12:46:58;37.80;72.20
54126;DHT22;40360;52.992;6.796;2022-07-19T12:49:24;37.90;71.80
54126;DHT22;40360;52.992;6.796;2022-07-19T12:51:50;37.90;69.80
54126;DHT22;40360;52.992;6.796;2022-07-19T12:54:16;37.90;69.40
54126;DHT22;40360;52.992;6.796;2022-07-19T12:56:41;37.90;69.20
54126;DHT22;40360;52.992;6.796;2022-07-19T12:59:10;37.70;69.30
54126;DHT22;40360;52.992;6.796;2022-07-19T13:01:54;38.00;68.70
54126;DHT22;40360;52.992;6.796;2022-07-19T13:04:20;37.50;68.00
54126;DHT22;40360;52.992;6.796;2022-07-19T13:06:47;38.00;68.20
54126;DHT22;40360;52.992;6.796;2022-07-19T13:09:13;37.90;69.00
54126;DHT22;40360;52.992;6.796;2022-07-19T13:11:38;38.00;68.40
54126;DHT22;40360;52.992;6.796;2022-07-19T13:14:04;38.00;68.40
54126;DHT22;40360;52.992;6.796;2022-07-19T13:16:32;38.10;67.30
54126;DHT22;40360;52.992;6.796;2022-07-19T13:18:57;38.10;66.80
54126;DHT22;40360;52.992;6.796;2022-07-19T13:21:23;38.10;66.50
54126;DHT22;40360;52.992;6.796;2022-07-19T13:23:49;38.20;67.20
54126;DHT22;40360;52.992;6.796;2022-07-19T13:26:15;38.20;66.80
54126;DHT22;40360;52.992;6.796;2022-07-19T13:28:40;38.30;66.50
54126;DHT22;40360;52.992;6.796;2022-07-19T13:31:06;38.40;65.70
54126;DHT22;40360;52.992;6.796;2022-07-19T13:33:31;38.30;65.70
54126;DHT22;40360;52.992;6.796;2022-07-19T13:35:57;38.40;65.80
54126;DHT22;40360;52.992;6.796;2022-07-19T13:38:22;38.40;66.80
54126;DHT22;40360;52.992;6.796;2022-07-19T13:40:48;38.40;65.10
54126;DHT22;40360;52.992;6.796;2022-07-19T13:43:14;38.50;65.50
54126;DHT22;40360;52.992;6.796;2022-07-19T13:45:40;38.50;64.60
54126;DHT22;40360;52.992;6.796;2022-07-19T13:48:05;38.60;64.50
54126;DHT22;40360;52.992;6.796;2022-07-19T13:50:31;38.60;65.60
54126;DHT22;40360;52.992;6.796;2022-07-19T13:52:58;38.60;65.30
54126;DHT22;40360;52.992;6.796;2022-07-19T13:55:24;38.90;65.00
54126;DHT22;40360;52.992;6.796;2022-07-19T13:57:50;38.70;65.50
54126;DHT22;40360;52.992;6.796;2022-07-19T14:00:16;38.80;64.30
54126;DHT22;40360;52.992;6.796;2022-07-19T14:02:43;38.90;64.50
54126;DHT22;40360;52.992;6.796;2022-07-19T14:05:09;38.90;64.50
54126;DHT22;40360;52.992;6.796;2022-07-19T14:07:35;38.80;62.60
54126;DHT22;40360;52.992;6.796;2022-07-19T14:10:01;39.00;63.10
54126;DHT22;40360;52.992;6.796;2022-07-19T14:12:27;39.00;64.10
54126;DHT22;40360;52.992;6.796;2022-07-19T14:14:52;39.00;63.20
54126;DHT22;40360;52.992;6.796;2022-07-19T14:17:18;39.00;63.80
54126;DHT22;40360;52.992;6.796;2022-07-19T14:19:44;39.00;62.30
54126;DHT22;40360;52.992;6.796;2022-07-19T14:22:12;39.00;63.90
54126;DHT22;40360;52.992;6.796;2022-07-19T14:24:38;38.90;64.60
54126;DHT22;40360;52.992;6.796;2022-07-19T14:27:04;39.20;64.10
54126;DHT22;40360;52.992;6.796;2022-07-19T14:29:29;39.20;62.20
54126;DHT22;40360;52.992;6.796;2022-07-19T14:31:55;39.20;61.70
54126;DHT22;40360;52.992;6.796;2022-07-19T14:34:21;39.20;59.90
54126;DHT22;40360;52.992;6.796;2022-07-19T14:36:46;39.20;60.80
54126;DHT22;40360;52.992;6.796;2022-07-19T14:39:12;39.10;62.70
54126;DHT22;40360;52.992;6.796;2022-07-19T14:41:38;39.20;62.70
54126;DHT22;40360;52.992;6.796;2022-07-19T14:44:04;39.30;61.00
54126;DHT22;40360;52.992;6.796;2022-07-19T14:46:29;39.50;61.00
54126;DHT22;40360;52.992;6.796;2022-07-19T14:48:55;39.40;60.40
54126;DHT22;40360;52.992;6.796;2022-07-19T14:51:21;39.40;61.60
54126;DHT22;40360;52.992;6.796;2022-07-19T14:53:46;39.30;62.60
54126;DHT22;40360;52.992;6.796;2022-07-19T14:56:12;39.40;62.10
54126;DHT22;40360;52.992;6.796;2022-07-19T14:58:38;39.60;60.00
54126;DHT22;40360;52.992;6.796;2022-07-19T15:01:03;39.40;60.80
54126;DHT22;40360;52.992;6.796;2022-07-19T15:03:29;39.50;61.00
54126;DHT22;40360;52.992;6.796;2022-07-19T15:05:55;39.50;60.60
54126;DHT22;40360;52.992;6.796;2022-07-19T15:08:20;39.90;60.90
54126;DHT22;40360;52.992;6.796;2022-07-19T15:10:46;39.70;60.00
54126;DHT22;40360;52.992;6.796;2022-07-19T15:13:12;39.80;60.10
54126;DHT22;40360;52.992;6.796;2022-07-19T15:15:37;39.90;60.70
54126;DHT22;40360;52.992;6.796;2022-07-19T15:18:03;40.00;61.50
54126;DHT22;40360;52.992;6.796;2022-07-19T15:20:30;40.00;61.00
54126;DHT22;40360;52.992;6.796;2022-07-19T15:22:56;40.00;59.90
54126;DHT22;40360;52.992;6.796;2022-07-19T15:25:22;40.20;59.50
54126;DHT22;40360;52.992;6.796;2022-07-19T15:27:51;40.20;59.30
54126;DHT22;40360;52.992;6.796;2022-07-19T15:30:19;40.10;58.70
54126;DHT22;40360;52.992;6.796;2022-07-19T15:32:45;40.20;58.80
54126;DHT22;40360;52.992;6.796;2022-07-19T15:35:11;40.10;59.80
54126;DHT22;40360;52.992;6.796;2022-07-19T15:37:37;40.20;60.10
54126;DHT22;40360;52.992;6.796;2022-07-19T15:40:03;40.40;60.00
54126;DHT22;40360;52.992;6.796;2022-07-19T15:42:29;40.30;59.50
54126;DHT22;40360;52.992;6.796;2022-07-19T15:44:54;40.40;60.90
54126;DHT22;40360;52.992;6.796;2022-07-19T15:47:20;40.50;58.70
54126;DHT22;40360;52.992;6.796;2022-07-19T15:49:45;40.50;59.10
54126;DHT22;40360;52.992;6.796;2022-07-19T15:52:12;40.50;59.20
54126;DHT22;40360;52.992;6.796;2022-07-19T15:54:38;40.50;58.80
54126;DHT22;40360;52.992;6.796;2022-07-19T15:57:04;40.40;59.50
54126;DHT22;40360;52.992;6.796;2022-07-19T15:59:29;40.00;58.60
54126;DHT22;40360;52.992;6.796;2022-07-19T16:01:55;39.90;57.50
54126;DHT22;40360;52.992;6.796;2022-07-19T16:04:21;39.90;58.70
54126;DHT22;40360;52.992;6.796;2022-07-19T16:06:46;40.00;60.10
54126;DHT22;40360;52.992;6.796;2022-07-19T16:09:12;40.00;58.40
54126;DHT22;40360;52.992;6.796;2022-07-19T16:11:37;39.90;58.30